Airfield :
LOGIN :

Register | Disclaimer

   EN    FR    IT 

 










Legend :    VFR   Marginal VFR   IFR   Intensive IFR   Very Intensive IFR
Visi :
Ceiling :
>= 8 km
>= 3000ft
5 to 8 km
1000 to 3000 ft
1500m to 5 km
500 to 1000 ft
800 to 1500m
200 to 500 ft
< 800m
< 200 ft
Symbols :   Thunderstorms  Fog  Heavy snow  Heavy precipitations  Wind > 20 kt
SIGMETs :     Misc.  Thunderstorms  Icing  Turbulence  Mountain Waves  Volcanic Ashes






- Airport Elevation : 319 ft


EIME - Casement Air Base

CURRENT METAR :
  • 120500Z 26004KT 3500 BR OVC015 17/16 Q1015

EXPIRED METARs :
  • 120400Z 25003KT 4000 BR OVC013 17/16 Q1015
  • 120300Z 19003KT 4000 BR OVC011 17/16 Q1016

TAF TAF EIME
Valid from the 12 at 06:00 until the 12 at 15:00 UTC


120500Z 1206/1215 VRB03KT 5000 BR FEW007 BKN015
PROB40
TEMPO 1206/1210 3000 BKN010
PROB30
TEMPO 1206/1208 0400 FG BKN001
BECMG 1210/1212 07005KT 9999 NSW SCT012 BKN020



MET'MAP, your aeronautical weather chart ! - Copyright ORBIFLY December 2007 - Disclaimer

ORBIFLY MET'MAP TEAM :

Programming & Development : Alexandra Zaïnal
Concept & original design : Baudouin d'Aumeries
Assistance for programming : Marc-Olivier Méhu
Technical & hardware support : Manuel Goepfert

Contact : metmap@orbifly.com




SOURCES & CREDITS :

   NOAA